WetterOnline ( https://www.wetteronline.de )

Wetter aktuell Pittenhart

Aktuelles Wetter: Chieming (553m)

6-stündlich | Neueste Meldungen
Ortszeit Temperatur Wetter
Mo, 20.09. 14:00 12.6° C bedeckt
Mo, 20.09. 8:00 10.8° C bedeckt
Mo, 20.09. 2:00 11.4° C bedeckt
So, 19.09. 20:00 14.6° C bewölkt
So, 19.09. 14:00 16.8° C fast wolkenlos
So, 19.09. 8:00 8.0° C wolkenlos
So, 19.09. 2:00 7.9° C wolkenlos
Sa, 18.09. 20:00 13.2° C wolkenlos
Ortszeit Temperatur Wetter
Mo, 20.09. 19:00 12.7° C bedeckt
Mo, 20.09. 18:50 12.7° C bedeckt
Mo, 20.09. 18:40 12.6° C bedeckt
Mo, 20.09. 18:30 12.8° C bedeckt
Mo, 20.09. 18:20 12.8° C bedeckt
Mo, 20.09. 18:10 12.8° C bedeckt
Mo, 20.09. 18:00 13.1° C bedeckt
Mo, 20.09. 17:30 13.5° C bedeckt
Mo, 20.09. 17:00 13.0° C bewölkt
Mo, 20.09. 16:30 13.5° C bedeckt
Mo, 20.09. 16:00 12.9° C bedeckt
Ortszeit Relative Feuchte Sichtweite
Mo, 20.09. 14:00 75% 40 km
Mo, 20.09. 8:00 92% 25 km
Mo, 20.09. 2:00 98% 30 km
So, 19.09. 20:00 84% 55 km
So, 19.09. 14:00 69% 55 km
So, 19.09. 8:00 94% 35 km
So, 19.09. 2:00 97% 30 km
Sa, 18.09. 20:00 81% >70 km
Ortszeit Relative Feuchte Sichtweite
Mo, 20.09. 19:00 87% 40 km
Mo, 20.09. 18:50 87% -
Mo, 20.09. 18:40 87% -
Mo, 20.09. 18:30 82% 50 km
Mo, 20.09. 18:20 82% -
Mo, 20.09. 18:10 79% -
Mo, 20.09. 18:00 76% 50 km
Mo, 20.09. 17:30 73% 50 km
Mo, 20.09. 17:00 73% 45 km
Mo, 20.09. 16:30 75% 45 km
Mo, 20.09. 16:00 73% 40 km
Ortszeit Niederschlagsmenge Niederschlagsart
Mo, 20.09. 14:00 0.1 l/m2 in 6 Std. Sprühregen
Mo, 20.09. 8:00 1 l/m2 in 12 Std. Regen
Mo, 20.09. 2:00 1 l/m2 in 6 Std. Regen
So, 19.09. 20:00 0.1 l/m2 in 12 Std. Regen
So, 19.09. 14:00 0.0 l/m2 in 6 Std. -
So, 19.09. 8:00 0.0 l/m2 in 12 Std. -
So, 19.09. 2:00 0.0 l/m2 in 6 Std. -
Sa, 18.09. 20:00 0.0 l/m2 in 12 Std. -
Ortszeit Niederschlagsmenge Niederschlagsart
Mo, 20.09. 19:00 0.0 l/m2 in 1 Std. -
Mo, 20.09. 18:50 keine Meldung -
Mo, 20.09. 18:40 keine Meldung -
Mo, 20.09. 18:30 0.0 l/m2 in 1 Std. -
Mo, 20.09. 18:20 keine Meldung -
Mo, 20.09. 18:10 keine Meldung -
Mo, 20.09. 18:00 0.0 l/m2 in 1 Std. -
Mo, 20.09. 17:30 0.0 l/m2 in 1 Std. -
Mo, 20.09. 17:00 0.0 l/m2 in 1 Std. Sprühregen
Mo, 20.09. 16:30 0.0 l/m2 in 1 Std. -
Mo, 20.09. 16:00 0.1 l/m2 in 1 Std. Sprühregen
Ortszeit Stärke Spitze Richtung
km/h Bft. km/h Grad Sektor
Mo, 20.09. 14:00 7 2 14 260° W
Mo, 20.09. 8:00 6 1 20 360° N
Mo, 20.09. 2:00 4 1 25 160° S
So, 19.09. 20:00 0 0 25 - -
So, 19.09. 14:00 20 4 31 70° O
So, 19.09. 8:00 9 2 11 80° O
So, 19.09. 2:00 7 2 18 80° O
Sa, 18.09. 20:00 4 1 14 90° O
Ortszeit Stärke Spitze Richtung
km/h Bft. km/h Grad Sektor
Mo, 20.09. 19:00 4 1 7 140° SO
Mo, 20.09. 18:50 4 1 - 140° SO
Mo, 20.09. 18:40 4 1 - 160° S
Mo, 20.09. 18:30 4 1 7 160° S
Mo, 20.09. 18:20 4 1 - 160° S
Mo, 20.09. 18:10 4 1 - 180° S
Mo, 20.09. 18:00 4 1 7 150° SO
Mo, 20.09. 17:30 4 1 7 130° SO
Mo, 20.09. 17:00 4 1 11 270° W
Mo, 20.09. 16:30 4 1 11 160° S
Mo, 20.09. 16:00 2 1 9 190° S
Ortszeit Untergrenze Bedeckung Gattung
total tief tief mittel hoch
Mo, 20.09. 14:00 630 m 8/8 8/8 - - -
Mo, 20.09. 8:00 450 m 8/8 8/8 - - -
Mo, 20.09. 2:00 450 m 8/8 8/8 - - -
So, 19.09. 20:00 1350 m 7/8 8/8 - - -
So, 19.09. 14:00 720 m 1/8 1/8 - - -
So, 19.09. 8:00 - 0/8 0/8 - - -
So, 19.09. 2:00 - 0/8 0/8 - - -
Sa, 18.09. 20:00 - 0/8 0/8 - - -
Ortszeit Bedeckungsgrad in Achtel und Wolkenuntergrenze
Mo, 20.09. 19:00 8(1500m)
Mo, 20.09. 18:50 8(1500m)
Mo, 20.09. 18:40 8(1440m)
Mo, 20.09. 18:30 6(1200m) 8(1440m)
Mo, 20.09. 18:20 6(1200m) 8(1440m)
Mo, 20.09. 18:10 7(1140m) 8(1410m)
Mo, 20.09. 18:00 2(660m) 4(1110m) 8(1350m)
Mo, 20.09. 17:30 8(1170m)
Mo, 20.09. 17:00 1(630m) 7(1320m) 7(1500m)
Mo, 20.09. 16:30 7(930m) 7(1170m) 8(1500m)
Mo, 20.09. 16:00 6(630m) 7(870m) 8(1110m)
Ortszeit Luftdruck NN (hPa) Tendenz (hPa in 3 Std.)
Mo, 20.09. 14:00 1019 + 0,3
Mo, 20.09. 8:00 1018 + 1,5
Mo, 20.09. 2:00 1016 + 1,1
So, 19.09. 20:00 1013 + 0,8
So, 19.09. 14:00 1011 - 0,7
So, 19.09. 8:00 1015 - 0,4
So, 19.09. 2:00 1016 - 1,0
Sa, 18.09. 20:00 1015 - 0,1
Ortszeit Luftdruck NN (hPa) Tendenz (hPa in 3 Std.)
Mo, 20.09. 19:00 1021 + 0,9
Mo, 20.09. 18:50 1021 keine Meldung
Mo, 20.09. 18:40 1021 keine Meldung
Mo, 20.09. 18:30 1020 + 0,7
Mo, 20.09. 18:20 1020 keine Meldung
Mo, 20.09. 18:10 1020 keine Meldung
Mo, 20.09. 18:00 1020 + 0,6
Mo, 20.09. 17:30 1020 + 0,6
Mo, 20.09. 17:00 1020 + 0,5
Mo, 20.09. 16:30 1020 + 0,5
Mo, 20.09. 16:00 1020 + 0,5
Ortszeit Schneehöhe (cm)
Mo, 20.09. 14:00 -
Mo, 20.09. 8:00 -
Mo, 20.09. 2:00 -
So, 19.09. 20:00 -
So, 19.09. 14:00 -
So, 19.09. 8:00 -
So, 19.09. 2:00 -
Sa, 18.09. 20:00 -
Ortszeit Schneehöhe (cm)
Mo, 20.09. 19:00 -
Mo, 20.09. 18:50 -
Mo, 20.09. 18:40 -
Mo, 20.09. 18:30 -
Mo, 20.09. 18:20 -
Mo, 20.09. 18:10 -
Mo, 20.09. 18:00 -
Mo, 20.09. 17:30 -
Mo, 20.09. 17:00 -
Mo, 20.09. 16:30 -
Mo, 20.09. 16:00 -
Link zu dieser Seite / Seite empfehlen

Das Wetter in ...